Time;durP1;ratioP1;P1;durP2;ratioP2;P2;SDS_P1;SDS_P2;PMS_P1;PMS_P2;Temp;Humidity;BMP_temperature;BMP_pressure;BME280_temperature;BME280_humidity;BME280_pressure;Samples;Min_cycle;Max_cycle;Signal;HPM_P1;HPM_P2
2021/12/25 00:00:51;;;;;;;3.97;1.58;;;1.20;84.10;;;;;;5126833;28;20096;-67
2021/12/25 00:03:17;;;;;;;3.80;1.10;;;1.20;83.60;;;;;;5122669;28;20043;-67
2021/12/25 00:05:45;;;;;;;2.35;0.95;;;1.20;84.00;;;;;;5110926;28;20126;-67
2021/12/25 00:08:11;;;;;;;8.40;1.25;;;1.20;84.10;;;;;;5111193;28;20055;-67
2021/12/25 00:10:37;;;;;;;2.60;0.95;;;1.20;84.00;;;;;;5117520;28;20087;-67
2021/12/25 00:13:02;;;;;;;3.67;1.58;;;1.10;83.70;;;;;;5130033;28;20051;-67
2021/12/25 00:15:28;;;;;;;2.90;1.20;;;1.10;83.70;;;;;;5126265;28;20042;-67
2021/12/25 00:17:54;;;;;;;1.50;0.70;;;1.00;83.60;;;;;;5118882;28;20031;-67
2021/12/25 00:20:19;;;;;;;1.67;0.77;;;1.00;83.40;;;;;;5100388;27;20044;-67
2021/12/25 00:22:45;;;;;;;5.90;1.90;;;1.00;83.60;;;;;;5123333;27;20039;-67
2021/12/25 00:25:11;;;;;;;6.85;1.05;;;0.90;83.70;;;;;;5121258;27;20040;-67
2021/12/25 00:27:53;;;;;;;4.78;1.10;;;1.00;83.70;;;;;;5119846;27;20035;-67
2021/12/25 00:30:45;;;;;;;3.53;1.00;;;0.90;83.60;;;;;;5126424;27;20568;-67
2021/12/25 00:33:19;;;;;;;5.57;0.85;;;0.90;83.60;;;;;;5128910;27;20058;-67
2021/12/25 00:35:46;;;;;;;2.65;0.82;;;0.90;83.70;;;;;;5131786;27;20103;-67
2021/12/25 00:38:11;;;;;;;9.05;0.98;;;0.90;83.60;;;;;;5121634;27;20054;-67
2021/12/25 00:40:37;;;;;;;6.35;1.00;;;0.80;83.20;;;;;;5126204;27;20039;-67
2021/12/25 00:43:03;;;;;;;5.50;1.00;;;0.80;83.30;;;;;;5132868;27;20067;-67
2021/12/25 00:45:28;;;;;;;4.20;1.00;;;0.80;83.40;;;;;;5127394;27;20172;-67
2021/12/25 00:47:54;;;;;;;5.18;1.58;;;0.80;83.20;;;;;;5131992;27;20050;-67
2021/12/25 00:50:19;;;;;;;5.00;1.02;;;0.70;83.20;;;;;;5096711;27;20046;-67
2021/12/25 00:52:45;;;;;;;5.35;0.90;;;0.70;83.40;;;;;;5117785;27;20043;-67
2021/12/25 00:55:11;;;;;;;7.25;2.97;;;0.70;83.50;;;;;;5125038;27;20493;-67
2021/12/25 00:57:37;;;;;;;6.88;1.13;;;0.70;83.30;;;;;;5124742;27;20072;-67
2021/12/25 01:00:09;;;;;;;3.17;0.95;;;0.70;83.10;;;;;;5106394;27;20051;-67
2021/12/25 01:02:36;;;;;;;5.10;0.80;;;0.70;82.60;;;;;;5125605;27;20066;-67
2021/12/25 01:05:03;;;;;;;3.17;0.93;;;0.70;83.00;;;;;;5122129;27;20111;-67
2021/12/25 01:07:29;;;;;;;2.05;0.88;;;0.60;82.60;;;;;;5087234;27;20052;-67
2021/12/25 01:09:55;;;;;;;4.97;1.10;;;0.60;82.70;;;;;;5123763;27;20454;-67
2021/12/25 01:12:20;;;;;;;3.40;0.70;;;0.60;82.70;;;;;;5122792;27;20377;-67
2021/12/25 01:14:52;;;;;;;6.25;1.10;;;0.60;82.80;;;;;;5121134;27;20133;-67
2021/12/25 01:17:39;;;;;;;;;;;0.60;82.90;;;;;;5119939;27;20044;-67
2021/12/25 01:30:23;;;;;;;2.28;0.73;;;0.40;82.00;;;;;;5125246;27;20043;-67
2021/12/25 01:40:43;;;;;;;4.38;1.75;;;0.20;80.30;;;;;;5125492;27;20115;-67
2021/12/25 01:48:39;;;;;;;3.00;0.70;;;0.10;80.20;;;;;;5119970;27;20555;-67
2021/12/25 01:51:06;;;;;;;4.10;0.70;;;0.10;80.00;;;;;;5122072;27;20047;-67
2021/12/25 01:53:31;;;;;;;3.35;1.00;;;0.10;80.50;;;;;;5122984;27;20038;-67
2021/12/25 01:56:01;;;;;;;3.17;0.68;;;0.10;79.70;;;;;;5118628;27;20039;-67
2021/12/25 01:58:27;;;;;;;1.98;0.55;;;0.10;80.10;;;;;;5118972;27;20039;-67
2021/12/25 02:00:55;;;;;;;2.72;0.60;;;0.00;79.10;;;;;;5122853;27;20077;-67
2021/12/25 02:03:23;;;;;;;5.45;0.90;;;0.00;79.30;;;;;;5124665;27;20472;-67
2021/12/25 02:05:49;;;;;;;6.68;0.80;;;0.00;79.90;;;;;;5121030;27;20066;-67
2021/12/25 02:08:16;;;;;;;2.47;0.93;;;0.00;80.00;;;;;;5123254;27;20055;-67
2021/12/25 02:10:42;;;;;;;3.08;0.73;;;0.00;79.20;;;;;;5122274;27;20039;-67
2021/12/25 02:13:09;;;;;;;3.25;0.63;;;-3276.70;79.00;;;;;;5123197;27;20428;-67
2021/12/25 02:15:36;;;;;;;4.38;0.80;;;-3276.60;78.80;;;;;;5123056;27;20046;-67
2021/12/25 02:20:44;;;;;;;5.38;1.15;;;-3276.60;78.90;;;;;;5100200;27;20047;-67
2021/12/25 02:23:14;;;;;;;5.65;0.80;;;-3276.60;78.90;;;;;;5103509;27;20061;-67
2021/12/25 02:25:40;;;;;;;3.45;0.60;;;-3276.60;78.80;;;;;;5122781;27;20040;-67
2021/12/25 02:28:06;;;;;;;5.20;0.95;;;-3276.60;78.90;;;;;;5122653;27;20046;-67
2021/12/25 02:30:32;;;;;;;4.05;1.00;;;-3276.60;78.70;;;;;;5123003;27;20427;-67
2021/12/25 02:32:58;;;;;;;1.98;0.75;;;-3276.50;78.20;;;;;;5086714;27;20089;-67
2021/12/25 02:35:26;;;;;;;2.08;0.68;;;-3276.40;78.00;;;;;;5120432;27;20063;-67
2021/12/25 02:37:52;;;;;;;3.88;0.60;;;-3276.30;78.20;;;;;;5120410;27;20049;-67
2021/12/25 02:40:17;;;;;;;4.43;0.68;;;-3276.30;77.70;;;;;;5119924;27;20335;-67
2021/12/25 02:42:43;;;;;;;4.18;0.90;;;-3276.30;78.20;;;;;;5101921;27;20109;-67
2021/12/25 02:45:15;;;;;;;7.30;1.95;;;-3276.40;78.80;;;;;;5103174;27;20046;-67
2021/12/25 02:47:47;;;;;;;3.47;1.05;;;-3276.30;78.50;;;;;;5123024;27;20058;-67
2021/12/25 02:50:21;;;;;;;3.63;0.60;;;-3276.20;76.60;;;;;;5099747;27;20051;-67
2021/12/25 02:52:46;;;;;;;4.15;0.60;;;-3276.30;78.00;;;;;;5119160;27;20043;-67
2021/12/25 02:55:12;;;;;;;1.52;0.43;;;-3276.20;77.60;;;;;;5122713;27;20046;-67
2021/12/25 02:57:37;;;;;;;2.67;0.80;;;-3276.20;77.60;;;;;;5121375;27;20435;-67
2021/12/25 03:00:08;;;;;;;3.55;0.50;;;-3276.10;77.70;;;;;;5123203;27;20531;-67
2021/12/25 03:02:34;;;;;;;1.92;0.70;;;-3276.10;77.90;;;;;;5122437;27;20047;-67
2021/12/25 03:05:00;;;;;;;1.27;0.50;;;-3276.10;78.10;;;;;;5121211;27;20036;-67
2021/12/25 03:07:26;;;;;;;3.25;0.55;;;-3276.10;78.00;;;;;;5105503;27;20492;-67
2021/12/25 03:09:52;;;;;;;0.70;0.32;;;-3276.10;77.70;;;;;;5120402;27;20044;-67
2021/12/25 03:12:26;;;;;;;3.00;0.63;;;-3276.10;78.20;;;;;;5123976;27;20082;-66
2021/12/25 03:15:06;;;;;;;1.25;0.30;;;-3276.10;78.40;;;;;;5115702;27;20049;-67
2021/12/25 03:17:32;;;;;;;2.65;0.82;;;-3276.00;77.90;;;;;;5116460;27;20036;-67
2021/12/25 03:19:58;;;;;;;3.08;0.77;;;-3276.00;77.80;;;;;;5121095;27;20507;-67
2021/12/25 03:22:24;;;;;;;1.73;0.63;;;-3276.00;78.10;;;;;;5119021;27;20070;-67
2021/12/25 03:24:50;;;;;;;1.45;0.40;;;-3276.00;78.20;;;;;;5122785;27;20043;-67
2021/12/25 03:27:16;;;;;;;4.57;0.80;;;-3276.00;77.90;;;;;;5115698;27;20045;-66
2021/12/25 03:29:42;;;;;;;1.90;0.70;;;-3276.00;77.80;;;;;;5123715;27;20511;-66
2021/12/25 03:32:09;;;;;;;1.38;0.70;;;-3276.00;77.90;;;;;;5116422;27;20631;-67
2021/12/25 03:34:35;;;;;;;5.22;0.60;;;-3275.90;77.40;;;;;;5120869;27;20043;-66
2021/12/25 03:37:01;;;;;;;3.03;0.52;;;-3275.90;77.40;;;;;;5099431;27;20035;-66
2021/12/25 03:39:28;;;;;;;1.05;0.60;;;-3275.90;77.20;;;;;;5115473;27;20466;-66
2021/12/25 03:41:56;;;;;;;2.60;0.60;;;-3275.80;77.40;;;;;;5119489;27;20518;-66
2021/12/25 03:44:23;;;;;;;2.95;0.55;;;-3275.80;77.40;;;;;;5102644;27;20035;-66
2021/12/25 03:46:48;;;;;;;3.63;0.60;;;-3275.80;77.60;;;;;;5122073;27;20047;-66
2021/12/25 03:49:26;;;;;;;4.22;0.85;;;-3275.80;77.40;;;;;;5119422;27;20446;-66
2021/12/25 04:00:07;;;;;;;1.98;0.60;;;-3275.60;76.80;;;;;;5119043;28;20043;-66
2021/12/25 04:02:48;;;;;;;4.28;0.50;;;-3275.60;77.30;;;;;;5120228;28;20063;-66
2021/12/25 04:05:17;;;;;;;3.80;0.77;;;-3275.60;77.50;;;;;;5119347;28;20050;-66
2021/12/25 04:10:08;;;;;;;6.53;0.50;;;-3275.60;76.90;;;;;;5103101;28;20047;-66
2021/12/25 04:12:34;;;;;;;0.95;0.40;;;-3275.60;76.70;;;;;;5101859;28;20377;-66
2021/12/25 04:15:00;;;;;;;2.28;0.40;;;-3275.60;76.70;;;;;;5120338;28;20399;-67
2021/12/25 04:17:25;;;;;;;1.40;0.47;;;-3275.60;76.20;;;;;;5117113;28;20650;-66
2021/12/25 04:19:51;;;;;;;2.67;0.38;;;-3275.60;77.20;;;;;;5121458;28;20499;-66
2021/12/25 04:22:20;;;;;;;2.25;0.35;;;-3275.60;76.20;;;;;;5121065;28;20438;-66
2021/12/25 04:24:48;;;;;;;2.05;0.30;;;-3275.50;75.40;;;;;;5117473;28;20043;-66
2021/12/25 04:27:16;;;;;;;2.42;0.43;;;-3275.60;76.20;;;;;;5128525;28;20046;-66
2021/12/25 04:30:02;;;;;;;1.42;0.50;;;-3275.60;76.50;;;;;;5129198;28;20066;-67
2021/12/25 05:02:11;;;;;;;1.85;0.40;;;-3275.40;75.80;;;;;;5124278;28;20155;-66
2021/12/25 05:04:43;;;;;;;1.35;0.30;;;-3275.30;75.50;;;;;;5117992;28;20044;-66
2021/12/25 05:07:10;;;;;;;;;;;-3275.30;75.90;;;;;;5112489;28;20055;-66
2021/12/25 05:09:35;;;;;;;0.45;0.28;;;-3275.30;75.10;;;;;;5112690;27;19924;-66
2021/12/25 05:12:01;;;;;;;1.10;0.40;;;-3275.30;75.70;;;;;;5094088;28;20365;-66
2021/12/25 05:14:27;;;;;;;1.02;0.30;;;-3275.30;76.00;;;;;;5122626;27;20046;-66
2021/12/25 05:16:52;;;;;;;8.38;1.52;;;-3275.30;76.20;;;;;;5114890;27;20047;-66
2021/12/25 05:19:19;;;;;;;0.88;0.28;;;-3275.30;76.30;;;;;;5117217;27;20089;-66
2021/12/25 05:21:45;;;;;;;0.85;0.50;;;-3275.30;75.70;;;;;;5112472;28;20032;-66
2021/12/25 05:24:11;;;;;;;3.85;0.55;;;-3275.20;75.20;;;;;;5118418;27;20038;-66
2021/12/25 05:26:36;;;;;;;0.88;0.40;;;-3275.20;75.50;;;;;;5112011;28;20097;-66
2021/12/25 05:29:03;;;;;;;1.55;0.95;;;-3275.20;75.90;;;;;;5130791;27;20043;-66
2021/12/25 05:31:31;;;;;;;3.50;2.08;;;-3275.20;75.60;;;;;;5132206;27;20039;-66
2021/12/25 05:33:58;;;;;;;3.63;0.65;;;-3275.20;75.80;;;;;;5119427;27;20035;-66
2021/12/25 05:36:28;;;;;;;15.68;2.38;;;-3275.10;75.00;;;;;;5076636;28;20056;-66
2021/12/25 05:38:57;;;;;;;0.68;0.38;;;-3275.10;75.50;;;;;;5112109;28;20064;-66
2021/12/25 05:41:25;;;;;;;1.92;0.45;;;-3275.00;75.50;;;;;;5094379;27;20415;-66
2021/12/25 05:43:51;;;;;;;0.82;0.45;;;-3275.00;75.60;;;;;;5113216;27;20507;-66
2021/12/25 05:46:17;;;;;;;4.30;0.47;;;-3275.00;76.10;;;;;;5113377;27;20055;-66
2021/12/25 05:48:45;;;;;;;4.75;0.63;;;-3275.00;76.10;;;;;;5127297;27;20051;-66
2021/12/25 05:51:12;;;;;;;1.40;0.40;;;-3275.00;76.10;;;;;;5115279;27;20051;-66
2021/12/25 05:53:38;;;;;;;0.80;0.38;;;-3275.10;76.10;;;;;;5113267;27;20047;-66
2021/12/25 05:56:04;;;;;;;1.63;0.45;;;-3275.10;76.20;;;;;;5127049;27;20031;-66
2021/12/25 05:58:30;;;;;;;1.75;0.38;;;-3275.10;76.40;;;;;;5112563;28;20059;-66
2021/12/25 06:00:55;;;;;;;2.70;0.40;;;-3275.00;75.80;;;;;;5111671;28;20179;-66
2021/12/25 06:03:21;;;;;;;0.60;0.40;;;-3275.10;76.20;;;;;;5093518;28;20131;-66
2021/12/25 06:05:47;;;;;;;1.10;0.43;;;-3275.10;76.50;;;;;;5130953;27;20487;-66
2021/12/25 06:08:13;;;;;;;1.10;0.50;;;-3275.10;76.00;;;;;;5116402;27;20047;-66
2021/12/25 06:10:40;;;;;;;0.47;0.30;;;-3275.00;76.00;;;;;;5111798;28;20062;-66
2021/12/25 06:13:10;;;;;;;2.03;0.60;;;-3275.10;76.30;;;;;;5111568;28;20051;-66
2021/12/25 06:15:36;;;;;;;2.88;0.50;;;-3275.10;76.00;;;;;;5093510;28;20483;-66
2021/12/25 06:18:03;;;;;;;0.93;0.40;;;-3275.00;75.90;;;;;;5126797;27;20172;-66
2021/12/25 06:20:29;;;;;;;2.78;0.55;;;-3275.00;76.30;;;;;;5113580;27;20522;-66
2021/12/25 06:22:54;;;;;;;2.13;0.43;;;-3275.00;76.10;;;;;;5113777;27;20043;-66
2021/12/25 06:25:20;;;;;;;3.20;0.60;;;-3275.00;76.30;;;;;;5113391;27;20103;-66
2021/12/25 06:27:46;;;;;;;0.80;0.50;;;-3275.00;76.50;;;;;;5121211;27;20074;-66
2021/12/25 06:30:13;;;;;;;0.70;0.40;;;-3274.90;75.60;;;;;;5110750;27;20496;-67
2021/12/25 06:32:39;;;;;;;4.15;0.50;;;-3274.90;75.80;;;;;;5115754;27;20122;-67
2021/12/25 06:35:05;;;;;;;2.00;0.85;;;-3274.90;76.00;;;;;;5120970;27;20119;-68
2021/12/25 06:37:31;;;;;;;1.05;0.38;;;-3274.90;76.20;;;;;;5121679;27;20075;-67
2021/12/25 06:39:57;;;;;;;5.68;0.50;;;-3274.80;76.60;;;;;;5116819;27;20458;-67
2021/12/25 06:42:23;;;;;;;1.65;0.43;;;-3274.90;76.80;;;;;;5112676;27;20040;-67
2021/12/25 06:44:49;;;;;;;3.95;0.50;;;-3274.90;76.50;;;;;;5090226;28;20100;-67
2021/12/25 06:47:14;;;;;;;3.58;0.60;;;-3274.90;76.50;;;;;;5125074;27;20039;-67
2021/12/25 06:49:40;;;;;;;2.70;0.50;;;-3274.90;76.50;;;;;;5130653;27;20050;-67
2021/12/25 06:52:06;;;;;;;3.30;0.47;;;-3274.80;76.40;;;;;;5111413;27;20377;-66
2021/12/25 06:54:32;;;;;;;13.55;0.90;;;-3274.80;76.50;;;;;;5131364;27;20047;-67
2021/12/25 06:56:58;;;;;;;2.50;0.50;;;-3274.80;76.60;;;;;;5131158;27;20035;-67
2021/12/25 06:59:23;;;;;;;4.45;0.52;;;-3274.80;76.40;;;;;;5130644;27;20119;-67
2021/12/25 07:01:50;;;;;;;1.98;0.57;;;-3274.80;76.40;;;;;;5112845;27;20047;-66
2021/12/25 07:04:16;;;;;;;0.88;0.28;;;-3274.70;76.30;;;;;;5113072;27;20498;-67
2021/12/25 07:06:42;;;;;;;2.30;0.40;;;-3274.70;76.40;;;;;;5130988;27;20039;-67
2021/12/25 07:09:08;;;;;;;5.28;0.30;;;-3274.70;76.60;;;;;;5112100;27;20082;-66
2021/12/25 07:11:35;;;;;;;2.58;0.32;;;-3274.70;76.20;;;;;;5131102;27;20106;-66
2021/12/25 07:14:03;;;;;;;2.92;0.70;;;-3274.70;76.60;;;;;;5128751;27;20035;-67
2021/12/25 07:16:30;;;;;;;1.30;0.43;;;-3274.60;76.50;;;;;;5130082;27;20086;-66
2021/12/25 07:18:55;;;;;;;2.72;0.50;;;-3274.70;76.50;;;;;;5126540;27;20050;-67
2021/12/25 07:21:21;;;;;;;0.90;0.40;;;-3274.70;76.30;;;;;;5130344;27;20655;-66
2021/12/25 07:23:47;;;;;;;1.85;0.38;;;-3274.70;76.20;;;;;;5128235;27;20767;-67
2021/12/25 07:26:16;;;;;;;0.98;0.40;;;-3274.60;75.70;;;;;;5122777;27;20516;-66
2021/12/25 07:28:42;;;;;;;3.20;0.60;;;-3274.60;75.80;;;;;;5130230;27;20479;-66
2021/12/25 07:31:08;;;;;;;2.40;1.30;;;-3274.60;75.70;;;;;;5130198;27;20176;-66
2021/12/25 07:33:36;;;;;;;2.25;0.55;;;-3274.60;76.10;;;;;;5100103;28;20040;-66
2021/12/25 07:36:03;;;;;;;0.65;0.32;;;-3274.60;76.20;;;;;;5130734;27;20499;-66
2021/12/25 07:38:29;;;;;;;0.63;0.22;;;-3274.60;76.10;;;;;;5130550;27;20130;-66
2021/12/25 07:40:55;;;;;;;3.25;0.35;;;-3274.50;75.40;;;;;;5130157;27;20547;-66
2021/12/25 07:43:21;;;;;;;0.98;0.40;;;-3274.50;74.90;;;;;;5100548;27;20035;-66
2021/12/25 07:45:48;;;;;;;3.88;0.40;;;-3274.40;74.90;;;;;;5130438;27;20047;-66
2021/12/25 07:48:18;;;;;;;1.77;0.98;;;-3274.40;75.50;;;;;;5121358;27;20484;-66
2021/12/25 07:50:43;;;;;;;3.17;0.30;;;-3274.50;75.90;;;;;;5109814;28;20039;-66
2021/12/25 07:53:10;;;;;;;1.55;0.50;;;-3274.50;75.40;;;;;;5119120;28;20412;-66
2021/12/25 07:55:36;;;;;;;4.05;0.57;;;-3274.40;75.20;;;;;;5108305;28;20043;-66
2021/12/25 07:58:02;;;;;;;2.75;0.60;;;-3274.40;75.20;;;;;;5109569;28;20048;-67
2021/12/25 08:00:28;;;;;;;0.43;0.20;;;-3274.50;75.20;;;;;;5109895;28;20079;-66
2021/12/25 08:02:53;;;;;;;1.83;0.50;;;-3274.40;75.40;;;;;;5115284;28;20047;-66
2021/12/25 08:05:20;;;;;;;0.88;0.40;;;-3274.50;75.30;;;;;;5111621;28;20739;-66
2021/12/25 08:07:46;;;;;;;1.60;0.47;;;-3274.40;75.00;;;;;;5116728;28;20067;-66
2021/12/25 08:10:13;;;;;;;3.55;0.32;;;-3274.50;75.60;;;;;;5121160;28;20130;-66
2021/12/25 08:12:45;;;;;;;0.80;0.50;;;-3274.40;75.30;;;;;;5127522;28;20126;-66
2021/12/25 08:15:12;;;;;;;1.80;0.52;;;-3274.50;76.00;;;;;;5102161;28;20070;-66
2021/12/25 08:17:38;;;;;;;1.95;0.40;;;-3274.50;76.00;;;;;;5122620;28;20035;-66
2021/12/25 08:20:05;;;;;;;3.08;0.40;;;-3274.50;76.10;;;;;;5117926;28;20254;-66
2021/12/25 08:22:31;;;;;;;1.85;0.50;;;-3274.50;75.50;;;;;;5128796;28;20043;-65
2021/12/25 08:24:56;;;;;;;2.10;0.38;;;-3274.50;75.40;;;;;;5126668;28;20043;-66
2021/12/25 08:27:22;;;;;;;1.50;0.43;;;-3274.50;75.30;;;;;;5128906;28;20537;-65
2021/12/25 08:29:48;;;;;;;2.17;0.50;;;-3274.50;75.70;;;;;;5128257;28;20046;-66
2021/12/25 08:32:13;;;;;;;0.65;0.35;;;-3274.50;76.20;;;;;;5100684;28;20545;-67
2021/12/25 08:34:40;;;;;;;2.33;0.38;;;-3274.60;76.40;;;;;;5124229;28;20047;-67
2021/12/25 08:37:06;;;;;;;2.60;0.50;;;-3274.60;76.50;;;;;;5125388;28;20118;-66
2021/12/25 08:39:32;;;;;;;2.53;0.50;;;-3274.70;76.10;;;;;;5110171;28;20039;-66
2021/12/25 08:42:03;;;;;;;2.45;0.80;;;-3274.60;75.80;;;;;;5124619;27;20046;-65
2021/12/25 08:44:36;;;;;;;1.40;0.40;;;-3274.60;76.00;;;;;;5118996;27;20048;-65
2021/12/25 08:47:05;;;;;;;5.25;0.65;;;-3274.60;76.00;;;;;;5115315;27;20313;-64
2021/12/25 08:49:32;;;;;;;2.33;0.80;;;-3274.60;76.20;;;;;;5118178;27;20471;-65
2021/12/25 08:52:09;;;;;;;1.38;0.38;;;-3274.60;75.80;;;;;;5129660;27;20437;-66
2021/12/25 08:54:36;;;;;;;1.58;0.57;;;-3274.70;75.80;;;;;;5120612;27;20118;-66
2021/12/25 08:57:03;;;;;;;2.53;0.77;;;-3274.70;75.80;;;;;;5125323;27;20091;-65
2021/12/25 08:59:29;;;;;;;2.08;0.95;;;-3274.70;74.60;;;;;;5126220;27;20048;-65
2021/12/25 09:01:56;;;;;;;2.38;0.75;;;-3274.70;75.50;;;;;;5123984;27;20050;-66
2021/12/25 09:04:21;;;;;;;5.95;1.30;;;-3274.80;76.00;;;;;;5127320;27;20084;-66
2021/12/25 09:06:47;;;;;;;6.32;1.10;;;-3274.80;75.10;;;;;;5118164;27;20069;-67
2021/12/25 09:09:13;;;;;;;0.55;0.40;;;-3274.80;75.70;;;;;;5110842;27;20035;-66
2021/12/25 09:11:39;;;;;;;3.67;0.55;;;-3275.00;75.90;;;;;;5098902;27;20083;-66
2021/12/25 09:14:06;;;;;;;4.82;0.52;;;-3275.00;76.00;;;;;;5131885;27;20043;-65
2021/12/25 09:16:32;;;;;;;1.63;0.50;;;-3275.10;75.90;;;;;;5133228;27;20082;-65
2021/12/25 09:18:58;;;;;;;3.83;0.70;;;-3275.20;75.60;;;;;;5128270;27;20453;-66
2021/12/25 09:21:24;;;;;;;5.10;0.52;;;-3275.30;75.70;;;;;;5130257;27;20066;-65
2021/12/25 09:23:50;;;;;;;4.60;0.70;;;-3275.20;75.00;;;;;;5129309;27;20471;-65
2021/12/25 09:26:17;;;;;;;4.57;0.60;;;-3275.30;75.80;;;;;;5119362;27;20032;-65
2021/12/25 09:28:46;;;;;;;4.63;0.57;;;-3275.40;75.80;;;;;;5107458;27;20050;-65
2021/12/25 09:31:12;;;;;;;1.58;0.60;;;-3275.30;74.40;;;;;;5131833;27;20039;-66
2021/12/25 09:33:38;;;;;;;3.95;0.57;;;-3275.40;75.10;;;;;;5118979;27;20047;-65
2021/12/25 09:36:04;;;;;;;2.88;0.40;;;-3275.40;74.20;;;;;;5126693;27;20114;-65
2021/12/25 09:38:31;;;;;;;2.00;0.60;;;-3275.40;74.70;;;;;;5112461;27;20035;-66
2021/12/25 09:41:02;;;;;;;1.55;0.40;;;-3275.50;75.10;;;;;;5120450;27;20048;-66
2021/12/25 09:43:28;;;;;;;2.97;0.80;;;-3275.50;75.20;;;;;;5114903;27;20092;-66
2021/12/25 09:45:55;;;;;;;1.83;0.85;;;-3275.50;74.40;;;;;;5113884;27;20043;-66
2021/12/25 09:48:21;;;;;;;0.75;0.35;;;-3275.50;74.30;;;;;;5126714;27;20113;-67
2021/12/25 09:50:47;;;;;;;3.17;0.73;;;-3275.50;74.50;;;;;;5114681;27;20500;-67
2021/12/25 09:53:15;;;;;;;3.22;1.20;;;-3275.60;74.50;;;;;;5077604;27;20047;-67
2021/12/25 09:55:42;;;;;;;1.02;0.40;;;-3275.60;73.70;;;;;;5111376;27;20063;-66
2021/12/25 09:58:08;;;;;;;1.85;0.30;;;-3275.50;74.00;;;;;;5114238;27;20056;-66
2021/12/25 10:00:39;;;;;;;1.13;0.30;;;-3275.50;74.40;;;;;;5118458;27;20048;-66
2021/12/25 10:03:04;;;;;;;1.25;0.50;;;-3275.60;74.80;;;;;;5083639;27;20062;-66
2021/12/25 10:05:32;;;;;;;0.93;0.50;;;-3275.60;74.80;;;;;;5130881;27;20039;-65
2021/12/25 10:08:31;;;;;;;2.13;0.43;;;-3275.70;73.70;;;;;;5102481;28;20044;-66
2021/12/25 10:11:00;;;;;;;10.70;0.63;;;-3275.70;73.90;;;;;;5093965;28;20056;-65
2021/12/25 10:13:39;;;;;;;9.65;1.10;;;-3275.90;75.40;;;;;;5131043;27;20043;-67
2021/12/25 10:16:25;;;;;;;3.00;0.80;;;0.20;86.40;;;;;;5113382;27;20437;-66
2021/12/25 10:18:54;;;;;;;1.23;0.40;;;0.70;78.00;;;;;;5128606;27;20054;-66
2021/12/25 10:21:26;;;;;;;3.50;0.63;;;0.50;74.20;;;;;;5112037;27;20047;-66
2021/12/25 10:24:07;;;;;;;3.40;0.50;;;0.10;70.30;;;;;;5114243;27;20039;-66
2021/12/25 10:26:36;;;;;;;2.80;0.75;;;-3276.70;71.90;;;;;;5121952;27;20492;-66
2021/12/25 10:29:37;;;;;;;2.78;0.70;;;-3276.60;72.50;;;;;;5127984;27;20043;-66
2021/12/25 10:32:35;;;;;;;1.42;0.50;;;-3276.30;72.00;;;;;;5048383;28;20045;-65
2021/12/25 10:35:12;;;;;;;2.53;0.90;;;-3276.30;73.20;;;;;;5131195;27;20043;-65
2021/12/25 10:37:42;;;;;;;1.80;0.70;;;-3276.20;72.50;;;;;;5094783;28;20043;-66
2021/12/25 10:40:32;;;;;;;2.78;0.57;;;-3276.10;72.70;;;;;;5125531;27;20035;-66
2021/12/25 10:43:01;;;;;;;4.55;0.70;;;-3276.10;72.70;;;;;;5084397;27;20139;-66
2021/12/25 10:45:29;;;;;;;4.28;1.20;;;-3276.00;73.00;;;;;;5124062;27;20035;-68
2021/12/25 10:48:10;;;;;;;2.22;0.47;;;0.20;80.50;;;;;;5130001;27;20099;-67
2021/12/25 10:50:41;;;;;;;1.80;0.60;;;0.20;71.70;;;;;;5122106;27;20114;-66
2021/12/25 10:53:28;;;;;;;2.72;0.50;;;0.00;72.00;;;;;;5117384;27;20045;-66
2021/12/25 10:56:07;;;;;;;2.67;0.90;;;-3276.60;71.40;;;;;;5118057;27;20087;-67
2021/12/25 10:58:32;;;;;;;1.80;0.50;;;-3276.50;71.70;;;;;;5125557;27;20062;-67
2021/12/25 11:00:58;;;;;;;6.78;3.65;;;-3276.40;72.40;;;;;;5128015;27;20040;-66
2021/12/25 11:03:33;;;;;;;9.40;2.35;;;-3276.30;71.80;;;;;;5119986;27;20035;-66
2021/12/25 11:06:21;;;;;;;4.78;0.70;;;-3276.30;72.40;;;;;;5123152;27;20046;-66
2021/12/25 11:08:49;;;;;;;3.22;0.80;;;-3276.20;72.20;;;;;;5115588;27;20064;-66
2021/12/25 11:11:20;;;;;;;2.42;0.68;;;-3276.20;71.90;;;;;;5110266;27;20035;-64
2021/12/25 11:13:53;;;;;;;11.63;3.10;;;-3276.20;72.50;;;;;;5109963;27;20043;-67
2021/12/25 11:16:27;;;;;;;5.85;2.05;;;-3276.70;75.30;;;;;;5109741;27;20074;-66
2021/12/25 11:19:16;;;;;;;8.48;2.13;;;0.00;71.50;;;;;;5127051;27;20034;-67
2021/12/25 11:21:44;;;;;;;5.68;1.65;;;0.00;71.30;;;;;;5129599;27;20525;-66
2021/12/25 11:24:17;;;;;;;3.05;0.90;;;-3276.60;70.60;;;;;;5119748;27;20454;-66
2021/12/25 11:26:45;;;;;;;3.95;2.05;;;-3276.60;71.60;;;;;;5101428;27;20536;-66
2021/12/25 11:29:13;;;;;;;3.05;0.70;;;-3276.50;71.10;;;;;;5117109;27;20088;-66
2021/12/25 11:31:40;;;;;;;3.13;1.17;;;-3276.50;70.50;;;;;;5130236;27;20035;-66
2021/12/25 11:34:08;;;;;;;3.55;1.02;;;-3276.40;70.00;;;;;;5100464;27;20076;-66
2021/12/25 11:36:41;;;;;;;4.68;1.00;;;-3276.40;71.40;;;;;;5118883;27;20057;-67
2021/12/25 11:39:07;;;;;;;2.30;1.10;;;-3276.40;70.20;;;;;;5123200;27;20047;-66
2021/12/25 11:41:35;;;;;;;4.97;0.80;;;-3276.40;70.40;;;;;;5125115;27;20046;-67
2021/12/25 11:44:05;;;;;;;1.55;0.73;;;-3276.50;71.10;;;;;;5106787;27;20122;-66
2021/12/25 11:46:39;;;;;;;3.33;1.45;;;-3276.40;71.20;;;;;;5129713;27;20059;-66
2021/12/25 11:49:12;;;;;;;2.53;0.90;;;-3276.50;71.60;;;;;;5117541;27;20043;-67
2021/12/25 11:51:40;;;;;;;3.22;0.82;;;-3276.50;70.50;;;;;;5123295;27;20043;-66
2021/12/25 11:59:50;;;;;;;1.10;0.65;;;-3276.50;70.10;;;;;;5115883;28;20055;-67
2021/12/25 12:02:39;;;;;;;3.40;0.63;;;-3276.50;71.30;;;;;;5097621;28;20044;-67
2021/12/25 12:05:18;;;;;;;3.97;1.55;;;-3276.60;71.00;;;;;;5113538;28;20046;-67
2021/12/25 12:08:06;;;;;;;2.95;1.15;;;-3276.60;71.10;;;;;;5127988;28;20039;-67
2021/12/25 12:10:44;;;;;;;1.10;0.45;;;-3276.70;71.40;;;;;;5126544;27;20118;-66
2021/12/25 12:13:29;;;;;;;17.00;9.45;;;-3276.70;70.60;;;;;;5124446;28;20254;-67
2021/12/25 12:16:01;;;;;;;15.02;5.78;;;-3276.70;71.30;;;;;;5097470;27;20039;-67
2021/12/25 12:18:28;;;;;;;7.95;4.00;;;-3276.70;70.80;;;;;;5124957;27;20046;-67
2021/12/25 12:21:07;;;;;;;6.10;2.72;;;-3276.70;70.30;;;;;;5124355;27;20047;-66
2021/12/25 12:26:51;;;;;;;7.28;4.10;;;0.00;70.10;;;;;;5125833;27;20079;-67
2021/12/25 12:29:39;;;;;;;6.40;2.80;;;0.00;70.00;;;;;;5109041;27;20039;-66
2021/12/25 12:32:43;;;;;;;9.15;4.18;;;0.00;69.30;;;;;;5087151;27;20058;-67
2021/12/25 12:35:30;;;;;;;3.42;1.10;;;0.00;69.30;;;;;;5113914;27;20514;-66
2021/12/25 12:38:47;;;;;;;2.85;1.02;;;0.00;69.80;;;;;;5121583;27;20067;-67
2021/12/25 12:41:13;;;;;;;2.10;0.70;;;0.00;69.50;;;;;;5112396;27;20042;-67
2021/12/25 12:44:03;;;;;;;3.58;0.60;;;-3276.70;68.50;;;;;;5119777;27;20040;-67
2021/12/25 12:46:47;;;;;;;4.20;0.77;;;0.00;70.00;;;;;;5112903;27;20043;-67
2021/12/25 12:49:34;;;;;;;3.13;1.40;;;0.00;69.80;;;;;;5093227;27;20681;-67
2021/12/25 12:52:21;;;;;;;16.58;9.38;;;0.00;69.70;;;;;;5094179;27;20071;-67
2021/12/25 12:54:56;;;;;;;6.72;2.38;;;0.00;69.70;;;;;;5126131;27;20050;-67
2021/12/25 12:57:33;;;;;;;6.07;1.00;;;0.00;70.00;;;;;;5127729;27;20044;-67
2021/12/25 13:00:17;;;;;;;1.40;0.60;;;0.00;69.80;;;;;;5113997;27;20070;-67
2021/12/25 13:02:45;;;;;;;2.20;0.75;;;0.00;69.70;;;;;;5113359;27;20047;-68
2021/12/25 13:05:12;;;;;;;1.85;0.55;;;0.00;69.10;;;;;;5096280;27;20122;-69
2021/12/25 13:07:42;;;;;;;3.47;1.70;;;0.00;68.30;;;;;;5116065;27;20551;-67
2021/12/25 13:10:21;;;;;;;2.45;0.90;;;0.00;69.30;;;;;;5095250;27;20133;-67
2021/12/25 13:12:49;;;;;;;2.58;0.90;;;0.00;69.10;;;;;;5098582;28;20413;-67
2021/12/25 13:15:16;;;;;;;2.30;1.10;;;0.00;69.40;;;;;;5120232;27;20046;-67
2021/12/25 13:17:58;;;;;;;8.45;3.08;;;0.00;70.10;;;;;;5111503;28;20082;-67
2021/12/25 13:21:01;;;;;;;22.48;13.57;;;0.00;69.80;;;;;;5118393;27;20081;-66
2021/12/25 13:23:32;;;;;;;47.22;27.23;;;0.60;72.70;;;;;;5096304;27;20039;-66
2021/12/25 13:26:01;;;;;;;4.97;2.60;;;0.90;70.00;;;;;;5125603;27;20047;-66
2021/12/25 13:28:32;;;;;;;3.53;2.15;;;0.80;68.10;;;;;;5114055;27;20412;-66
2021/12/25 13:31:00;;;;;;;5.30;1.80;;;0.80;67.90;;;;;;5123290;27;20048;-66
2021/12/25 13:33:30;;;;;;;3.88;1.67;;;0.70;67.90;;;;;;5123592;27;20212;-67
2021/12/25 13:36:06;;;;;;;2.95;0.98;;;0.60;67.30;;;;;;5086053;27;20039;-67
2021/12/25 13:38:56;;;;;;;3.28;0.60;;;0.50;67.10;;;;;;5105638;27;20476;-67
2021/12/25 13:41:41;;;;;;;9.23;2.33;;;0.40;68.20;;;;;;5125767;27;20051;-67
2021/12/25 13:44:27;;;;;;;5.13;0.70;;;0.40;68.20;;;;;;5120030;27;20488;-67
2021/12/25 13:47:11;;;;;;;2.67;0.60;;;0.20;67.40;;;;;;5130466;27;20523;-67
2021/12/25 13:49:45;;;;;;;3.30;1.05;;;0.20;68.50;;;;;;5120793;27;20047;-67
2021/12/25 13:52:13;;;;;;;3.95;1.33;;;0.20;68.10;;;;;;5125463;27;20547;-67
2021/12/25 13:54:43;;;;;;;3.67;0.90;;;0.20;68.10;;;;;;5131939;27;20043;-67
2021/12/25 13:57:12;;;;;;;3.95;0.60;;;0.20;68.00;;;;;;5131622;27;20043;-67